Time;durP1;ratioP1;P1;durP2;ratioP2;P2;SDS_P1;SDS_P2;PMS_P1;PMS_P2;Temp;Humidity;BMP_temperature;BMP_pressure;BME280_temperature;BME280_humidity;BME280_pressure;Samples;Min_cycle;Max_cycle;Signal;HPM_P1;HPM_P2
2023/05/25 00:04:15;;;;;;;4.37;3.27;;;16.60;29.70;;;;;;10445300;28;20232;-71
2023/05/25 00:09:19;;;;;;;3.97;2.67;;;16.60;30.00;;;;;;10445527;28;20985;-72
2023/05/25 00:14:22;;;;;;;5.13;3.10;;;16.50;29.70;;;;;;10445310;28;20224;-72
2023/05/25 00:19:27;;;;;;;5.43;3.20;;;16.50;29.70;;;;;;10445067;28;20263;-73
2023/05/25 00:24:30;;;;;;;6.37;3.37;;;16.50;29.80;;;;;;10445244;28;20252;-72
2023/05/25 00:29:34;;;;;;;4.87;3.20;;;16.50;29.70;;;;;;10445504;28;20237;-72
2023/05/25 00:34:40;;;;;;;5.10;3.00;;;16.40;29.80;;;;;;10452733;28;20229;-72
2023/05/25 00:39:44;;;;;;;6.63;3.30;;;16.40;30.00;;;;;;10452827;28;20263;-72
2023/05/25 00:44:48;;;;;;;4.57;3.43;;;16.40;30.00;;;;;;10452246;28;20235;-72
2023/05/25 00:49:52;;;;;;;5.03;3.50;;;16.40;30.00;;;;;;10452534;28;20225;-72
2023/05/25 00:54:59;;;;;;;5.17;3.90;;;16.40;30.30;;;;;;10452134;28;20324;-72
2023/05/25 01:00:06;;;;;;;5.00;3.87;;;16.40;30.30;;;;;;10451772;28;20504;-72
2023/05/25 01:05:14;;;;;;;4.93;3.63;;;16.30;30.10;;;;;;10451631;28;20713;-72
2023/05/25 01:10:19;;;;;;;5.53;3.67;;;16.30;30.60;;;;;;10451233;28;20237;-72
2023/05/25 01:15:23;;;;;;;4.77;3.50;;;16.30;30.30;;;;;;10450945;28;20674;-72
2023/05/25 01:20:28;;;;;;;6.53;4.10;;;16.30;30.30;;;;;;10451262;28;20229;-72
2023/05/25 01:25:38;;;;;;;5.20;3.90;;;16.30;30.70;;;;;;10450980;28;20263;-72
2023/05/25 01:30:45;;;;;;;7.60;3.97;;;16.30;30.90;;;;;;10450786;28;20233;-72
2023/05/25 01:35:49;;;;;;;5.60;3.57;;;16.30;30.40;;;;;;10450712;28;20253;-72
2023/05/25 01:40:54;;;;;;;6.67;3.97;;;16.30;30.60;;;;;;10450326;28;20306;-72
2023/05/25 01:46:06;;;;;;;3.87;3.50;;;16.30;31.00;;;;;;10450386;28;20237;-72
2023/05/25 01:51:17;;;;;;;6.33;3.97;;;16.30;31.30;;;;;;10450426;28;20232;-72
2023/05/25 01:56:23;;;;;;;5.27;3.90;;;16.30;31.30;;;;;;10450352;28;20231;-72
2023/05/25 02:01:27;;;;;;;6.63;4.43;;;16.30;31.40;;;;;;10449517;28;20239;-74
2023/05/25 02:06:31;;;;;;;6.83;4.30;;;16.30;31.30;;;;;;10449110;28;20262;-72
2023/05/25 02:11:35;;;;;;;4.93;3.93;;;16.30;31.20;;;;;;10447034;28;20247;-72
2023/05/25 02:16:38;;;;;;;5.00;4.57;;;16.30;31.60;;;;;;10449685;28;20229;-72
2023/05/25 02:21:42;;;;;;;6.57;4.50;;;16.30;31.30;;;;;;10448843;28;20236;-72
2023/05/25 02:26:46;;;;;;;5.00;4.13;;;16.30;31.50;;;;;;10448761;28;20744;-72
2023/05/25 02:31:49;;;;;;;7.37;4.50;;;16.20;31.50;;;;;;10448721;28;20320;-72
2023/05/25 02:36:52;;;;;;;6.00;4.20;;;16.20;31.50;;;;;;10448638;28;20236;-72
2023/05/25 02:41:57;;;;;;;5.60;4.00;;;16.20;31.50;;;;;;10448108;28;20237;-72
2023/05/25 02:47:00;;;;;;;6.60;4.40;;;16.20;31.80;;;;;;10447671;28;20232;-72
2023/05/25 02:52:05;;;;;;;7.00;4.60;;;16.20;31.60;;;;;;10447069;28;20233;-72
2023/05/25 02:57:09;;;;;;;5.70;4.50;;;16.20;31.80;;;;;;10447208;28;20251;-72
2023/05/25 03:02:12;;;;;;;5.67;4.40;;;16.20;32.00;;;;;;10446973;28;20228;-72
2023/05/25 03:07:15;;;;;;;5.37;4.37;;;16.20;31.80;;;;;;10447441;28;20252;-72
2023/05/25 03:12:20;;;;;;;9.43;4.67;;;16.20;31.90;;;;;;10446483;28;20798;-72
2023/05/25 03:17:23;;;;;;;8.13;4.67;;;16.20;32.10;;;;;;10446445;28;20313;-72
2023/05/25 03:22:27;;;;;;;10.13;4.63;;;16.20;31.90;;;;;;10446377;28;20240;-72
2023/05/25 03:27:31;;;;;;;6.87;4.43;;;16.20;31.90;;;;;;10446387;28;20236;-72
2023/05/25 03:32:35;;;;;;;7.37;4.60;;;16.20;32.00;;;;;;10446157;28;20243;-71
2023/05/25 03:37:38;;;;;;;6.17;4.37;;;16.10;31.80;;;;;;10446277;28;20244;-72
2023/05/25 03:42:42;;;;;;;6.23;4.53;;;16.10;31.80;;;;;;10445615;28;20951;-72
2023/05/25 03:47:46;;;;;;;8.77;4.87;;;16.10;32.20;;;;;;10445056;28;20709;-72
2023/05/25 03:52:50;;;;;;;6.77;4.53;;;16.10;32.00;;;;;;10445454;28;20233;-72
2023/05/25 03:57:54;;;;;;;5.73;3.97;;;16.10;32.10;;;;;;10444926;28;20231;-72
2023/05/25 04:02:57;;;;;;;7.13;4.47;;;16.10;32.40;;;;;;10445598;28;20237;-72
2023/05/25 04:08:01;;;;;;;6.53;4.20;;;16.10;32.20;;;;;;10453163;28;20224;-72
2023/05/25 04:13:05;;;;;;;5.83;4.17;;;16.20;32.40;;;;;;10453356;28;20855;-72
2023/05/25 04:18:08;;;;;;;5.93;4.30;;;16.10;32.70;;;;;;10453676;28;20237;-72
2023/05/25 04:23:12;;;;;;;6.20;4.40;;;16.10;32.40;;;;;;10452350;28;20233;-72
2023/05/25 04:28:16;;;;;;;4.33;3.93;;;16.10;32.50;;;;;;10451837;28;20239;-73
2023/05/25 04:33:19;;;;;;;8.17;4.47;;;16.10;33.00;;;;;;10453301;28;20308;-73
2023/05/25 04:38:23;;;;;;;7.40;4.40;;;16.10;32.60;;;;;;10452978;28;20237;-72
2023/05/25 04:43:28;;;;;;;5.60;3.87;;;16.10;32.70;;;;;;10453486;28;20231;-73
2023/05/25 04:48:33;;;;;;;7.43;4.40;;;16.10;33.10;;;;;;10451325;28;20252;-72
2023/05/25 04:53:36;;;;;;;6.43;4.87;;;16.10;32.70;;;;;;10452836;28;20289;-72
2023/05/25 04:58:41;;;;;;;8.03;4.50;;;16.10;33.00;;;;;;10452100;28;20247;-72
2023/05/25 05:03:44;;;;;;;4.37;3.63;;;16.20;33.20;;;;;;10452113;28;20721;-72
2023/05/25 05:08:47;;;;;;;5.13;3.87;;;16.20;33.10;;;;;;10451703;28;20244;-72
2023/05/25 05:13:52;;;;;;;6.13;4.43;;;16.20;33.20;;;;;;10451263;28;20556;-72
2023/05/25 05:18:55;;;;;;;8.93;4.83;;;16.20;33.20;;;;;;10451217;28;20229;-72
2023/05/25 05:23:58;;;;;;;6.57;4.17;;;16.20;33.20;;;;;;10451415;28;20644;-72
2023/05/25 05:29:03;;;;;;;9.07;4.30;;;16.30;33.30;;;;;;10448892;28;20260;-72
2023/05/25 05:34:06;;;;;;;7.27;4.50;;;16.40;33.30;;;;;;10450087;28;20324;-72
2023/05/25 05:39:09;;;;;;;7.17;4.23;;;16.40;33.30;;;;;;10450100;28;20248;-72
2023/05/25 05:44:14;;;;;;;5.30;4.13;;;16.50;33.40;;;;;;10448839;28;20320;-71
2023/05/25 05:49:18;;;;;;;9.80;4.60;;;16.60;33.50;;;;;;10449505;28;20235;-72
2023/05/25 05:54:21;;;;;;;5.77;4.50;;;16.60;33.50;;;;;;10450426;28;20735;-72
2023/05/25 05:59:25;;;;;;;7.93;4.53;;;16.70;33.60;;;;;;10450307;28;20321;-71
2023/05/25 06:04:29;;;;;;;6.80;4.60;;;16.80;33.70;;;;;;10450246;28;20225;-72
2023/05/25 06:09:32;;;;;;;8.87;5.13;;;16.90;33.80;;;;;;10449505;28;20316;-71
2023/05/25 06:14:36;;;;;;;6.47;4.73;;;17.00;33.90;;;;;;10449339;28;20228;-72
2023/05/25 06:19:40;;;;;;;6.70;4.77;;;17.10;34.00;;;;;;10450944;28;20239;-71
2023/05/25 06:24:43;;;;;;;4.90;4.33;;;17.30;34.10;;;;;;10445907;28;20324;-71
2023/05/25 06:29:48;;;;;;;6.27;4.60;;;17.40;34.20;;;;;;10440448;28;20294;-71
2023/05/25 06:34:51;;;;;;;7.03;4.50;;;17.50;34.30;;;;;;10440764;28;20225;-71
2023/05/25 06:39:54;;;;;;;5.70;4.40;;;17.70;34.20;;;;;;10440808;28;20236;-72
2023/05/25 06:45:01;;;;;;;6.07;4.73;;;17.90;33.90;;;;;;10442084;28;20236;-72
2023/05/25 06:50:05;;;;;;;8.03;4.57;;;18.00;33.70;;;;;;10443606;28;20236;-71
2023/05/25 06:55:09;;;;;;;6.33;4.77;;;18.20;33.60;;;;;;10447237;28;20320;-71
2023/05/25 07:00:15;;;;;;;8.43;4.80;;;18.20;33.40;;;;;;10446806;28;20319;-71
2023/05/25 07:05:18;;;;;;;4.90;4.07;;;18.30;33.40;;;;;;10447801;28;20228;-71
2023/05/25 07:10:23;;;;;;;6.03;4.67;;;18.40;33.40;;;;;;10446564;28;20742;-71
2023/05/25 07:15:27;;;;;;;5.60;4.60;;;18.50;33.50;;;;;;10446553;28;20811;-71
2023/05/25 07:20:32;;;;;;;7.10;4.87;;;18.70;33.70;;;;;;10446400;28;20271;-70
2023/05/25 07:25:37;;;;;;;7.57;5.20;;;18.80;33.40;;;;;;10446336;28;20233;-70
2023/05/25 07:30:41;;;;;;;7.27;5.10;;;18.90;33.40;;;;;;10445381;28;20236;-71
2023/05/25 07:35:45;;;;;;;6.83;4.93;;;19.00;33.40;;;;;;10445661;28;20243;-71
2023/05/25 07:40:48;;;;;;;7.07;4.97;;;19.10;33.40;;;;;;10475962;28;20244;-71
2023/05/25 07:45:53;;;;;;;5.23;4.47;;;19.20;33.30;;;;;;10486921;28;20236;-71
2023/05/25 07:50:56;;;;;;;6.23;4.67;;;19.40;33.40;;;;;;10487020;28;20228;-71
2023/05/25 07:56:00;;;;;;;7.87;5.20;;;19.60;33.40;;;;;;10487076;28;20735;-71
2023/05/25 08:01:05;;;;;;;7.03;4.57;;;19.70;33.20;;;;;;10486906;28;20319;-71
2023/05/25 08:06:08;;;;;;;8.07;4.80;;;19.90;33.30;;;;;;10486907;28;20698;-71
2023/05/25 08:11:12;;;;;;;8.50;5.00;;;20.10;33.20;;;;;;10486779;28;20323;-71
2023/05/25 08:16:16;;;;;;;4.60;4.00;;;20.30;33.00;;;;;;10486965;28;20748;-72
2023/05/25 08:21:21;;;;;;;6.27;4.37;;;20.40;32.80;;;;;;10487012;28;20241;-71
2023/05/25 08:26:24;;;;;;;6.53;4.70;;;20.50;32.80;;;;;;10486425;28;20238;-71
2023/05/25 08:31:49;;;;;;;6.27;4.70;;;20.60;32.40;;;;;;10486782;28;20899;-72
2023/05/25 08:36:52;;;;;;;6.03;4.70;;;20.70;32.40;;;;;;10486097;28;20239;-71
2023/05/25 08:41:56;;;;;;;6.57;4.80;;;20.70;32.40;;;;;;10485724;28;20659;-71
2023/05/25 08:47:05;;;;;;;7.30;4.97;;;20.80;32.50;;;;;;10486422;28;20235;-72
2023/05/25 08:52:13;;;;;;;7.13;4.70;;;20.90;32.30;;;;;;10488213;28;20224;-71
2023/05/25 08:57:23;;;;;;;5.73;4.13;;;21.10;32.50;;;;;;10492793;28;20234;-71
2023/05/25 09:02:34;;;;;;;7.30;4.47;;;21.20;32.00;;;;;;10493098;28;20346;-71
2023/05/25 09:07:38;;;;;;;5.20;4.20;;;21.30;31.60;;;;;;10493042;28;20715;-71
2023/05/25 09:12:43;;;;;;;7.63;4.50;;;21.40;31.90;;;;;;10486708;28;20248;-72
2023/05/25 09:17:47;;;;;;;4.30;3.90;;;21.50;31.70;;;;;;10484523;28;20232;-72
2023/05/25 09:22:51;;;;;;;8.37;4.97;;;21.50;31.90;;;;;;10483715;28;20334;-71
2023/05/25 09:27:57;;;;;;;5.73;4.53;;;21.60;31.90;;;;;;10484205;28;20323;-71
2023/05/25 09:33:11;;;;;;;7.70;4.40;;;21.70;31.60;;;;;;10484132;28;20224;-71
2023/05/25 09:38:15;;;;;;;5.20;4.63;;;21.90;31.40;;;;;;10483363;28;20224;-72
2023/05/25 09:43:19;;;;;;;5.50;4.20;;;21.90;32.20;;;;;;10483010;28;20315;-72
2023/05/25 09:48:44;;;;;;;5.40;4.27;;;22.00;31.80;;;;;;10483775;28;20927;-73
2023/05/25 09:53:47;;;;;;;6.27;3.83;;;22.10;31.30;;;;;;10483467;28;20232;-73
2023/05/25 09:58:52;;;;;;;6.17;3.83;;;22.20;31.60;;;;;;10483636;28;20323;-73
2023/05/25 10:03:58;;;;;;;6.03;4.40;;;22.40;31.20;;;;;;10482419;28;20312;-73
2023/05/25 10:09:12;;;;;;;4.87;4.00;;;22.50;30.90;;;;;;10483157;28;20229;-73
2023/05/25 10:14:21;;;;;;;4.07;3.50;;;22.60;30.60;;;;;;10471197;28;20733;-72
2023/05/25 10:19:31;;;;;;;4.53;3.53;;;22.70;30.40;;;;;;10413701;28;20230;-72
2023/05/25 10:24:38;;;;;;;5.23;3.60;;;22.80;30.30;;;;;;10406555;28;20315;-72
2023/05/25 10:29:42;;;;;;;5.00;3.70;;;22.90;30.50;;;;;;10406865;28;20683;-72
2023/05/25 10:34:48;;;;;;;3.90;3.53;;;23.00;30.50;;;;;;10405729;28;20811;-72
2023/05/25 10:39:53;;;;;;;4.10;3.70;;;23.10;30.00;;;;;;10407123;28;20304;-72
2023/05/25 10:44:58;;;;;;;4.80;3.80;;;23.20;30.10;;;;;;10429337;28;20229;-72
2023/05/25 10:50:03;;;;;;;7.00;3.40;;;23.20;30.00;;;;;;10447565;28;20236;-72
2023/05/25 10:55:08;;;;;;;4.30;3.67;;;23.30;30.00;;;;;;10447385;28;20292;-72
2023/05/25 11:00:14;;;;;;;4.07;3.60;;;23.30;30.00;;;;;;10477806;28;20260;-73
2023/05/25 11:05:37;;;;;;;3.80;3.50;;;23.40;29.70;;;;;;10482917;28;20232;-74
2023/05/25 11:10:52;;;;;;;4.33;3.40;;;23.60;29.50;;;;;;10450464;28;20232;-73
2023/05/25 11:16:34;;;;;;;5.33;3.27;;;23.70;29.10;;;;;;10438777;28;20731;-73
2023/05/25 11:21:44;;;;;;;5.20;3.10;;;23.70;29.50;;;;;;10440624;28;20228;-74
2023/05/25 11:26:55;;;;;;;4.10;3.50;;;23.80;29.10;;;;;;10441025;28;20275;-73
2023/05/25 11:31:59;;;;;;;3.33;3.03;;;23.90;29.20;;;;;;10440452;28;20260;-73
2023/05/25 11:37:05;;;;;;;4.03;3.40;;;24.00;29.60;;;;;;10442306;28;20239;-74
2023/05/25 11:42:10;;;;;;;3.83;3.47;;;24.10;28.90;;;;;;10440992;28;20232;-74
2023/05/25 11:47:18;;;;;;;4.07;3.50;;;24.20;28.80;;;;;;10417180;28;20234;-74
2023/05/25 11:52:22;;;;;;;3.70;3.40;;;24.20;28.80;;;;;;10402969;28;20287;-74
2023/05/25 11:57:26;;;;;;;3.90;3.20;;;24.30;28.50;;;;;;10402728;28;20595;-73
2023/05/25 12:02:37;;;;;;;4.40;3.30;;;24.40;28.90;;;;;;10404149;28;20271;-74
2023/05/25 12:07:45;;;;;;;4.77;3.50;;;24.50;28.40;;;;;;10404000;28;20264;-73
2023/05/25 12:12:51;;;;;;;3.67;3.10;;;24.60;28.50;;;;;;10404403;28;20236;-73
2023/05/25 12:17:54;;;;;;;4.33;3.03;;;24.70;28.50;;;;;;10404424;28;20238;-73
2023/05/25 12:22:59;;;;;;;3.90;3.40;;;24.70;28.50;;;;;;10404084;28;20229;-73
2023/05/25 12:28:13;;;;;;;4.60;3.43;;;24.90;28.30;;;;;;10407791;28;20230;-74
2023/05/25 12:33:17;;;;;;;4.70;3.47;;;25.00;28.10;;;;;;10412810;28;20233;-74
2023/05/25 12:38:21;;;;;;;5.17;3.50;;;25.10;28.50;;;;;;10410709;28;20245;-71
2023/05/25 12:43:24;;;;;;;4.00;3.43;;;25.10;28.00;;;;;;10411597;28;20309;-72
2023/05/25 12:48:28;;;;;;;4.37;3.37;;;25.20;28.30;;;;;;10410626;28;20317;-73
2023/05/25 12:53:46;;;;;;;3.83;3.17;;;25.20;27.90;;;;;;10411806;28;20693;-72
2023/05/25 12:58:50;;;;;;;5.13;3.20;;;25.20;27.60;;;;;;10410757;28;20332;-72
2023/05/25 13:03:53;;;;;;;4.27;3.10;;;25.30;27.90;;;;;;10425411;28;20327;-73
2023/05/25 13:08:57;;;;;;;3.83;3.10;;;25.40;27.80;;;;;;10452175;28;20316;-72
2023/05/25 13:14:01;;;;;;;6.17;3.30;;;25.50;27.20;;;;;;10452133;28;20331;-72
2023/05/25 13:19:04;;;;;;;4.03;3.23;;;25.70;27.50;;;;;;10450545;28;20256;-73
2023/05/25 13:24:10;;;;;;;3.73;3.37;;;25.80;27.50;;;;;;10449118;28;20236;-74
2023/05/25 13:29:13;;;;;;;7.30;3.30;;;25.90;26.40;;;;;;10449325;28;20235;-71
2023/05/25 13:34:16;;;;;;;3.83;3.50;;;25.90;27.00;;;;;;10449427;28;20229;-71
2023/05/25 13:39:21;;;;;;;3.30;3.00;;;25.90;26.80;;;;;;10449867;28;20713;-72
2023/05/25 13:44:25;;;;;;;5.20;3.57;;;25.90;26.30;;;;;;10449492;28;20304;-72
2023/05/25 13:49:30;;;;;;;3.60;3.27;;;25.90;26.50;;;;;;10448678;28;20312;-72
2023/05/25 13:54:35;;;;;;;3.23;3.03;;;25.90;26.40;;;;;;10449573;28;20300;-72
2023/05/25 13:59:38;;;;;;;4.40;3.87;;;26.00;26.40;;;;;;10448426;28;20239;-71
2023/05/25 14:04:41;;;;;;;5.87;3.53;;;26.10;26.30;;;;;;10448854;28;20324;-72
2023/05/25 14:09:46;;;;;;;4.20;3.57;;;26.10;26.20;;;;;;10448602;28;20240;-71
2023/05/25 14:14:49;;;;;;;4.17;3.50;;;26.20;25.70;;;;;;10448215;28;20308;-71
2023/05/25 14:19:52;;;;;;;4.80;3.80;;;26.20;25.90;;;;;;10447460;28;20427;-71
2023/05/25 14:24:57;;;;;;;5.63;3.70;;;26.40;25.80;;;;;;10447320;28;20236;-71
2023/05/25 14:30:00;;;;;;;3.67;3.30;;;26.30;26.00;;;;;;10454073;28;20232;-71
2023/05/25 14:35:04;;;;;;;3.57;3.07;;;26.40;25.50;;;;;;10488378;28;20224;-72
2023/05/25 14:40:10;;;;;;;4.03;3.67;;;26.40;25.40;;;;;;10488270;28;20251;-72
2023/05/25 14:45:13;;;;;;;4.07;3.70;;;26.50;24.70;;;;;;10487954;28;20323;-72
2023/05/25 14:50:18;;;;;;;4.80;3.57;;;26.50;25.20;;;;;;10487377;28;20274;-72
2023/05/25 14:55:22;;;;;;;3.40;3.10;;;26.50;25.30;;;;;;10488096;28;20228;-71
2023/05/25 15:00:27;;;;;;;4.07;3.53;;;26.60;25.00;;;;;;10487441;28;20235;-72
2023/05/25 15:05:31;;;;;;;4.43;3.67;;;26.60;25.20;;;;;;10488308;28;20224;-73
2023/05/25 15:10:35;;;;;;;3.93;3.50;;;26.70;24.80;;;;;;10488019;28;20577;-73
2023/05/25 15:15:38;;;;;;;5.77;3.60;;;26.70;24.30;;;;;;10487394;28;20986;-73
2023/05/25 15:20:42;;;;;;;3.63;3.33;;;26.80;24.60;;;;;;10487802;28;20313;-71
2023/05/25 15:25:46;;;;;;;3.83;3.43;;;26.80;24.60;;;;;;10487647;28;20921;-71
2023/05/25 15:30:50;;;;;;;4.10;3.63;;;26.80;24.10;;;;;;10487122;28;20238;-72
2023/05/25 15:35:53;;;;;;;4.60;3.47;;;26.90;24.40;;;;;;10487416;28;20330;-72
2023/05/25 15:40:57;;;;;;;4.77;4.33;;;27.00;24.40;;;;;;10454542;28;20239;-70
2023/05/25 15:46:01;;;;;;;5.50;3.93;;;27.00;23.70;;;;;;10445808;28;20255;-72
2023/05/25 15:51:04;;;;;;;3.93;3.57;;;27.00;24.00;;;;;;10446173;28;20244;-72
2023/05/25 15:56:08;;;;;;;4.70;3.80;;;27.10;23.80;;;;;;10445819;28;20227;-72
2023/05/25 16:01:11;;;;;;;4.20;3.50;;;27.10;23.50;;;;;;10448365;28;20316;-72
2023/05/25 16:06:16;;;;;;;3.80;3.50;;;27.10;23.70;;;;;;10452785;28;20233;-72
2023/05/25 16:11:20;;;;;;;3.83;3.43;;;27.20;23.40;;;;;;10451857;28;20298;-72
2023/05/25 16:16:24;;;;;;;5.00;3.50;;;27.20;23.00;;;;;;10454297;28;20251;-73
2023/05/25 16:21:27;;;;;;;4.13;3.73;;;27.20;23.30;;;;;;10454831;28;20233;-73
2023/05/25 16:26:31;;;;;;;3.70;3.40;;;27.20;23.30;;;;;;10454490;28;20308;-72
2023/05/25 16:31:34;;;;;;;4.37;3.43;;;27.30;23.10;;;;;;10489970;28;20236;-70
2023/05/25 16:36:38;;;;;;;4.27;3.53;;;27.30;23.20;;;;;;10493355;28;20270;-70
2023/05/25 16:41:42;;;;;;;4.27;3.73;;;27.30;23.20;;;;;;10491315;28;20232;-70
2023/05/25 16:46:45;;;;;;;3.67;3.30;;;27.40;22.60;;;;;;10490184;28;20234;-70
2023/05/25 16:51:49;;;;;;;3.63;3.20;;;27.40;22.80;;;;;;10489900;28;20228;-71
2023/05/25 16:56:53;;;;;;;4.27;3.73;;;27.40;23.00;;;;;;10491689;28;20716;-71
2023/05/25 17:01:57;;;;;;;3.37;3.10;;;27.40;22.50;;;;;;10491617;28;20244;-72
2023/05/25 17:07:01;;;;;;;5.87;3.67;;;27.40;22.60;;;;;;10491562;28;20711;-72
2023/05/25 17:12:06;;;;;;;5.10;3.60;;;27.40;22.80;;;;;;10490271;28;21015;-72
2023/05/25 17:17:09;;;;;;;4.07;3.60;;;27.30;22.40;;;;;;10491902;28;20232;-70
2023/05/25 17:22:12;;;;;;;4.03;3.50;;;27.30;22.70;;;;;;10488098;28;20343;-70
2023/05/25 17:27:17;;;;;;;4.77;3.30;;;27.20;22.80;;;;;;10490994;28;20228;-71
2023/05/25 17:32:20;;;;;;;3.90;3.57;;;27.20;22.60;;;;;;10491385;28;20238;-70
2023/05/25 17:37:24;;;;;;;4.33;3.60;;;27.20;22.70;;;;;;10491173;28;20817;-70
2023/05/25 17:42:28;;;;;;;3.40;3.10;;;27.20;22.80;;;;;;10490513;28;20315;-70
2023/05/25 17:47:31;;;;;;;4.80;3.70;;;27.10;22.60;;;;;;10490612;28;20339;-70
2023/05/25 17:52:35;;;;;;;4.57;3.07;;;27.10;22.60;;;;;;10490723;28;20319;-70
2023/05/25 17:57:39;;;;;;;3.83;3.40;;;27.10;22.60;;;;;;10490143;28;20240;-70
2023/05/25 18:02:43;;;;;;;4.03;3.40;;;27.10;22.80;;;;;;10488653;28;20228;-70
2023/05/25 18:07:46;;;;;;;4.00;3.70;;;27.00;23.00;;;;;;10489804;28;20662;-70
2023/05/25 18:12:51;;;;;;;5.30;3.40;;;26.90;23.00;;;;;;10488795;28;20666;-70
2023/05/25 18:17:54;;;;;;;3.90;3.60;;;26.80;23.10;;;;;;10488578;28;20228;-70
2023/05/25 18:22:58;;;;;;;4.07;3.47;;;26.70;23.10;;;;;;10488290;28;20228;-70
2023/05/25 18:28:04;;;;;;;3.93;3.37;;;26.50;23.10;;;;;;10488565;28;20267;-71
2023/05/25 18:33:09;;;;;;;5.23;3.80;;;26.40;22.90;;;;;;10488650;28;20236;-71
2023/05/25 18:38:12;;;;;;;3.77;3.47;;;26.20;23.20;;;;;;10488601;28;20264;-70
2023/05/25 18:43:17;;;;;;;4.10;3.50;;;26.00;23.30;;;;;;10451951;28;20332;-71
2023/05/25 18:48:22;;;;;;;4.10;3.60;;;25.90;23.60;;;;;;10440953;28;20259;-71
2023/05/25 18:53:25;;;;;;;3.77;3.40;;;25.80;23.70;;;;;;10456802;28;20315;-70
2023/05/25 18:58:30;;;;;;;7.80;4.17;;;25.70;23.80;;;;;;10487516;28;20263;-71
2023/05/25 19:03:33;;;;;;;4.17;3.77;;;25.50;24.00;;;;;;10467545;28;20934;-71
2023/05/25 19:08:37;;;;;;;3.70;3.40;;;25.40;24.10;;;;;;10487470;28;20256;-71
2023/05/25 19:13:41;;;;;;;5.13;3.67;;;25.20;24.20;;;;;;10461055;28;20244;-72
2023/05/25 19:18:45;;;;;;;5.20;3.33;;;25.10;24.50;;;;;;10436133;28;20237;-72
2023/05/25 19:23:49;;;;;;;4.20;3.77;;;24.90;24.40;;;;;;10433644;28;20247;-72
2023/05/25 19:28:54;;;;;;;4.20;3.80;;;24.80;24.60;;;;;;10440156;28;20231;-73
2023/05/25 19:33:57;;;;;;;4.40;3.60;;;24.70;24.80;;;;;;10439667;28;20586;-73
2023/05/25 19:39:01;;;;;;;5.17;4.57;;;24.60;24.70;;;;;;10432066;28;20237;-72
2023/05/25 19:44:05;;;;;;;3.47;3.17;;;24.40;24.70;;;;;;10433560;28;20299;-72
2023/05/25 19:49:08;;;;;;;4.20;3.80;;;24.30;24.80;;;;;;10445703;28;20225;-73
2023/05/25 19:54:12;;;;;;;4.03;3.63;;;24.10;24.80;;;;;;10434215;28;20233;-72
2023/05/25 19:59:16;;;;;;;4.23;3.83;;;24.00;25.00;;;;;;10414539;28;20881;-71
2023/05/25 20:04:20;;;;;;;4.07;3.67;;;23.90;25.30;;;;;;10439202;28;20225;-71
2023/05/25 20:09:28;;;;;;;5.67;3.77;;;23.80;25.00;;;;;;10438838;28;20232;-71
2023/05/25 20:14:33;;;;;;;4.20;3.80;;;23.60;25.20;;;;;;10440075;28;20659;-71
2023/05/25 20:19:37;;;;;;;4.50;3.63;;;23.50;25.30;;;;;;10468413;28;20666;-71
2023/05/25 20:24:40;;;;;;;5.53;3.90;;;23.40;25.40;;;;;;10435664;28;20231;-71
2023/05/25 20:29:45;;;;;;;5.00;4.17;;;23.30;25.60;;;;;;10439499;28;20713;-71
2023/05/25 20:34:48;;;;;;;4.80;4.30;;;23.20;25.40;;;;;;10441244;28;20709;-71
2023/05/25 20:39:51;;;;;;;4.57;4.17;;;23.00;25.30;;;;;;10425830;28;20237;-71
2023/05/25 20:44:56;;;;;;;4.67;4.20;;;22.80;25.40;;;;;;10397698;28;20264;-71
2023/05/25 20:49:59;;;;;;;7.77;4.17;;;22.60;25.80;;;;;;10403933;28;20324;-71
2023/05/25 20:55:02;;;;;;;6.43;4.60;;;22.30;25.70;;;;;;10421082;28;20229;-71
2023/05/25 21:00:08;;;;;;;5.63;4.30;;;22.00;25.90;;;;;;10451226;28;20252;-71
2023/05/25 21:05:12;;;;;;;4.87;4.10;;;21.90;26.60;;;;;;10489097;28;20224;-71
2023/05/25 21:10:16;;;;;;;4.10;3.43;;;21.80;26.50;;;;;;10452093;28;20228;-71
2023/05/25 21:15:21;;;;;;;4.77;3.87;;;21.70;26.50;;;;;;10440680;28;20225;-71
2023/05/25 21:20:25;;;;;;;4.90;4.37;;;21.70;26.50;;;;;;10442126;28;20712;-71
2023/05/25 21:25:29;;;;;;;3.83;3.53;;;21.60;26.40;;;;;;10443023;28;20312;-71
2023/05/25 21:30:33;;;;;;;4.37;3.97;;;21.50;26.30;;;;;;10443778;28;20228;-71
2023/05/25 21:35:37;;;;;;;5.00;3.97;;;21.50;26.60;;;;;;10432576;28;20229;-72
2023/05/25 21:40:40;;;;;;;5.07;4.40;;;21.40;26.50;;;;;;10444990;28;20233;-70
2023/05/25 21:45:44;;;;;;;5.00;4.53;;;21.40;26.80;;;;;;10441084;28;20224;-70
2023/05/25 21:50:50;;;;;;;4.07;3.77;;;21.40;26.90;;;;;;10445173;28;21089;-70
2023/05/25 21:55:53;;;;;;;5.47;4.50;;;21.30;26.80;;;;;;10436115;28;20260;-70
2023/05/25 22:00:57;;;;;;;4.87;4.27;;;21.20;26.90;;;;;;10437850;28;20709;-70
2023/05/25 22:06:01;;;;;;;3.70;3.40;;;21.10;27.20;;;;;;10437932;28;20231;-70
2023/05/25 22:11:04;;;;;;;5.13;4.30;;;21.10;27.00;;;;;;10441797;28;20293;-71
2023/05/25 22:16:09;;;;;;;5.07;3.67;;;21.10;27.10;;;;;;10448304;28;20398;-70
2023/05/25 22:21:15;;;;;;;3.80;3.50;;;20.90;27.10;;;;;;10443757;28;20236;-70
2023/05/25 22:26:18;;;;;;;5.13;4.00;;;20.80;27.20;;;;;;10443294;28;20316;-70
2023/05/25 22:31:24;;;;;;;6.93;4.10;;;20.60;26.90;;;;;;10440843;28;20262;-70
2023/05/25 22:36:27;;;;;;;6.30;4.30;;;20.40;27.20;;;;;;10436205;28;20233;-70
2023/05/25 22:41:30;;;;;;;5.10;4.20;;;20.30;27.30;;;;;;10440202;28;20300;-70
2023/05/25 22:46:35;;;;;;;4.50;4.10;;;20.10;27.50;;;;;;10445406;28;20224;-70
2023/05/25 22:51:39;;;;;;;4.80;4.23;;;20.00;27.80;;;;;;10446599;28;20248;-70
2023/05/25 22:56:42;;;;;;;5.17;4.67;;;19.90;27.80;;;;;;10435690;28;20235;-70
2023/05/25 23:01:47;;;;;;;4.80;4.30;;;19.90;28.00;;;;;;10436705;28;20239;-70
2023/05/25 23:06:50;;;;;;;5.07;4.67;;;19.80;28.20;;;;;;10437486;28;20232;-70
2023/05/25 23:11:53;;;;;;;5.37;4.87;;;19.70;28.10;;;;;;10446166;28;20788;-70
2023/05/25 23:16:58;;;;;;;5.23;4.73;;;19.60;28.00;;;;;;10442897;28;20223;-70
2023/05/25 23:22:01;;;;;;;5.90;5.00;;;19.60;28.40;;;;;;10441076;28;21181;-70
2023/05/25 23:27:05;;;;;;;4.37;3.97;;;19.60;28.30;;;;;;10443045;28;20227;-70
2023/05/25 23:32:10;;;;;;;5.07;4.47;;;19.50;28.30;;;;;;10440565;28;20262;-70
2023/05/25 23:37:13;;;;;;;4.33;3.73;;;19.50;28.50;;;;;;10442255;28;20300;-70
2023/05/25 23:42:17;;;;;;;4.27;3.87;;;19.40;28.40;;;;;;10445493;28;21036;-70
2023/05/25 23:47:21;;;;;;;4.17;3.87;;;19.40;28.50;;;;;;10433590;28;20270;-70
2023/05/25 23:52:25;;;;;;;4.97;4.40;;;19.40;28.70;;;;;;10440521;28;20224;-70
2023/05/25 23:57:28;;;;;;;4.63;4.13;;;19.30;28.60;;;;;;10436920;28;20229;-70
